createdAt,value
2022-08-07T00:02:35.390Z,20.52
2022-08-07T00:04:09.674Z,20.44
2022-08-07T00:06:51.186Z,20.58
2022-08-07T00:09:22.571Z,20.53
2022-08-07T00:11:55.572Z,20.58
2022-08-07T00:14:31.221Z,20.31
2022-08-07T00:17:01.899Z,20.50
2022-08-07T00:19:59.575Z,20.62
2022-08-07T00:22:24.399Z,20.25
2022-08-07T00:25:06.915Z,20.40
2022-08-07T00:27:52.609Z,20.49
2022-08-07T00:30:27.331Z,20.44
2022-08-07T00:32:57.170Z,20.30
2022-08-07T00:35:26.461Z,20.22
2022-08-07T00:37:55.320Z,20.26
2022-08-07T00:40:40.192Z,20.22
2022-08-07T00:43:14.035Z,20.40
2022-08-07T00:46:02.307Z,20.27
2022-08-07T00:48:32.615Z,20.41
2022-08-07T00:51:02.647Z,20.35
2022-08-07T00:53:38.589Z,20.31
2022-08-07T00:56:15.431Z,20.28
2022-08-07T00:58:47.074Z,19.87
2022-08-07T01:01:21.230Z,20.17
2022-08-07T01:03:56.343Z,20.23
2022-08-07T01:06:29.587Z,20.09
2022-08-07T01:09:01.044Z,20.12
2022-08-07T01:12:23.370Z,20.02
2022-08-07T01:14:21.375Z,19.78
2022-08-07T01:16:59.218Z,19.79
2022-08-07T01:19:32.506Z,19.83
2022-08-07T01:22:03.627Z,20.00
2022-08-07T01:24:38.009Z,19.86
2022-08-07T01:27:06.512Z,20.00
2022-08-07T01:29:48.243Z,19.92
2022-08-07T01:32:19.011Z,19.81
2022-08-07T01:34:51.830Z,20.02
2022-08-07T01:37:21.866Z,19.90
2022-08-07T01:39:50.674Z,19.86
2022-08-07T01:42:38.311Z,19.86
2022-08-07T01:45:09.783Z,20.02
2022-08-07T01:48:19.359Z,19.79
2022-08-07T01:50:28.996Z,19.83
2022-08-07T01:53:08.803Z,19.87
2022-08-07T01:55:45.709Z,19.78
2022-08-07T01:58:29.369Z,19.88
2022-08-07T02:01:10.272Z,19.64
2022-08-07T02:04:08.632Z,19.59
2022-08-07T02:06:39.214Z,19.64
2022-08-07T02:09:51.617Z,19.61
2022-08-07T02:12:17.644Z,19.55
2022-08-07T02:14:51.146Z,19.59
2022-08-07T02:17:27.515Z,19.65
2022-08-07T02:20:06.814Z,19.64
2022-08-07T02:22:43.677Z,19.74
2022-08-07T02:25:17.313Z,19.45
2022-08-07T02:27:52.143Z,19.76
2022-08-07T02:30:21.856Z,19.86
2022-08-07T02:33:01.009Z,19.82
2022-08-07T02:36:29.027Z,19.48
2022-08-07T02:38:32.410Z,19.67
2022-08-07T02:41:04.305Z,19.45
2022-08-07T02:43:34.479Z,19.53
2022-08-07T02:46:05.529Z,19.62
2022-08-07T02:48:34.465Z,19.26
2022-08-07T02:51:29.241Z,19.37
2022-08-07T02:54:01.076Z,19.19
2022-08-07T02:56:33.718Z,19.43
2022-08-07T02:59:06.883Z,19.35
2022-08-07T03:01:40.140Z,19.35
2022-08-07T03:04:13.022Z,19.42
2022-08-07T03:06:45.738Z,19.39
2022-08-07T03:09:43.152Z,19.44
2022-08-07T03:12:14.226Z,19.28
2022-08-07T03:14:52.907Z,19.41
2022-08-07T03:17:25.810Z,19.07
2022-08-07T03:19:55.625Z,19.27
2022-08-07T03:22:30.313Z,19.13
2022-08-07T03:24:59.874Z,19.20
2022-08-07T03:27:58.846Z,19.01
2022-08-07T03:30:19.254Z,19.20
2022-08-07T03:32:58.678Z,19.35
2022-08-07T03:35:43.395Z,19.16
2022-08-07T03:38:14.461Z,19.32
2022-08-07T03:40:44.234Z,19.08
2022-08-07T03:43:15.423Z,18.97
2022-08-07T03:45:47.428Z,19.10
2022-08-07T03:48:17.666Z,19.21
2022-08-07T03:50:55.948Z,19.16
2022-08-07T03:54:00.585Z,18.93
2022-08-07T03:56:32.571Z,19.13
2022-08-07T03:59:08.599Z,18.87
2022-08-07T04:01:45.472Z,18.74
2022-08-07T04:04:17.876Z,19.00
2022-08-07T04:06:50.845Z,18.79
2022-08-07T04:09:23.119Z,18.97
2022-08-07T04:12:24.514Z,18.99
2022-08-07T04:14:47.555Z,18.87
2022-08-07T04:17:21.579Z,19.06
2022-08-07T04:19:53.993Z,18.90
2022-08-07T04:22:27.333Z,19.00
2022-08-07T04:24:58.172Z,19.08
2022-08-07T04:27:28.215Z,18.81
2022-08-07T04:30:01.405Z,19.03
2022-08-07T04:32:34.558Z,18.95
2022-08-07T04:35:05.404Z,19.01
2022-08-07T04:38:00.823Z,19.01
2022-08-07T04:40:29.773Z,18.98
2022-08-07T04:43:01.345Z,18.99
2022-08-07T04:45:52.108Z,19.06
2022-08-07T04:48:39.413Z,18.79
2022-08-07T04:51:27.610Z,18.84
2022-08-07T04:54:06.303Z,18.96
2022-08-07T04:58:11.765Z,18.94
2022-08-07T05:00:12.025Z,19.09
2022-08-07T05:02:43.419Z,18.93
2022-08-07T05:05:53.930Z,18.82
2022-08-07T05:08:59.023Z,19.02
2022-08-07T05:11:24.486Z,19.06
2022-08-07T05:14:52.441Z,19.08
2022-08-07T05:16:53.582Z,19.10
2022-08-07T05:19:32.888Z,19.20
2022-08-07T05:22:26.641Z,19.27
2022-08-07T05:24:59.703Z,19.32
2022-08-07T05:28:03.183Z,19.58
2022-08-07T05:30:21.118Z,19.51
2022-08-07T05:33:03.378Z,19.81
2022-08-07T05:35:42.150Z,19.97
2022-08-07T05:38:12.764Z,20.10
2022-08-07T05:41:12.443Z,20.23
2022-08-07T05:44:08.245Z,20.38
2022-08-07T05:46:37.364Z,20.48
2022-08-07T05:49:11.641Z,20.62
2022-08-07T05:51:42.669Z,20.76
2022-08-07T05:54:30.982Z,20.79
2022-08-07T05:57:02.560Z,21.01
2022-08-07T05:59:55.834Z,21.12
2022-08-07T06:02:30.710Z,21.33
2022-08-07T06:05:07.026Z,21.44
2022-08-07T06:08:13.677Z,21.47
2022-08-07T06:10:25.769Z,21.32
2022-08-07T06:12:54.590Z,21.82
2022-08-07T06:15:38.535Z,22.01
2022-08-07T06:18:15.624Z,22.09
2022-08-07T06:20:50.816Z,22.38
2022-08-07T06:24:37.130Z,22.41
2022-08-07T06:26:27.909Z,22.70
2022-08-07T06:29:01.256Z,22.37
2022-08-07T06:31:46.703Z,22.77
2022-08-07T06:34:24.923Z,22.56
2022-08-07T06:36:58.128Z,22.40
2022-08-07T06:40:17.881Z,22.67
2022-08-07T06:42:34.897Z,23.20
2022-08-07T06:45:05.510Z,23.47
2022-08-07T06:47:57.106Z,23.67
2022-08-07T06:50:30.417Z,23.84
2022-08-07T06:53:00.110Z,23.93
2022-08-07T06:55:48.019Z,23.82
2022-08-07T06:58:27.621Z,23.55
2022-08-07T07:00:58.949Z,24.38
2022-08-07T07:03:49.396Z,24.22
2022-08-07T07:06:26.370Z,24.58
2022-08-07T07:08:54.886Z,24.64
2022-08-07T07:12:08.643Z,24.75
2022-08-07T07:14:23.786Z,24.84
2022-08-07T07:16:58.793Z,25.21
2022-08-07T07:19:56.404Z,25.12
2022-08-07T07:22:35.765Z,25.37
2022-08-07T07:26:30.392Z,25.35
2022-08-07T07:28:42.550Z,25.45
2022-08-07T07:31:05.812Z,25.51
2022-08-07T07:33:37.449Z,25.39
2022-08-07T07:36:13.441Z,25.44
2022-08-07T07:38:47.492Z,25.38
2022-08-07T07:41:18.549Z,25.52
2022-08-07T07:44:14.143Z,25.30
2022-08-07T07:46:54.451Z,25.77
2022-08-07T07:50:32.445Z,25.48
2022-08-07T07:52:18.244Z,25.46
2022-08-07T07:54:51.244Z,25.80
2022-08-07T07:57:53.316Z,26.04
2022-08-07T08:00:29.949Z,26.35
2022-08-07T08:03:08.281Z,25.87
2022-08-07T08:05:54.749Z,26.34
2022-08-07T08:08:34.346Z,26.59
2022-08-07T08:11:16.392Z,25.66
2022-08-07T08:13:54.294Z,26.48
2022-08-07T08:16:35.068Z,26.23
2022-08-07T08:19:17.449Z,26.95
2022-08-07T08:22:16.151Z,27.18
2022-08-07T08:25:24.691Z,27.35
2022-08-07T08:28:01.610Z,27.69
2022-08-07T08:30:34.550Z,26.84
2022-08-07T08:33:10.573Z,27.15
2022-08-07T08:35:50.762Z,27.43
2022-08-07T08:38:29.498Z,26.76
2022-08-07T08:41:10.025Z,27.89
2022-08-07T08:43:58.773Z,27.68
2022-08-07T08:46:38.414Z,27.10
2022-08-07T08:49:19.604Z,27.12
2022-08-07T08:52:23.105Z,26.94
2022-08-07T08:55:07.993Z,26.56
2022-08-07T08:57:45.309Z,27.42
2022-08-07T09:00:16.727Z,27.30
2022-08-07T09:02:57.682Z,27.86
2022-08-07T09:05:44.601Z,27.74
2022-08-07T09:08:37.828Z,27.89
2022-08-07T09:11:24.324Z,27.21
2022-08-07T09:14:14.229Z,26.41
2022-08-07T09:16:58.749Z,26.96
2022-08-07T09:19:52.985Z,27.69
2022-08-07T09:24:31.834Z,27.48
2022-08-07T09:25:43.498Z,27.54
2022-08-07T09:30:01.511Z,27.22
2022-08-07T09:31:38.436Z,27.87
2022-08-07T09:34:21.491Z,27.04
2022-08-07T09:37:01.080Z,27.49
2022-08-07T09:39:55.290Z,27.49
2022-08-07T09:42:42.219Z,27.53
2022-08-07T09:47:27.511Z,27.93
2022-08-07T09:48:29.952Z,28.64
2022-08-07T09:52:09.786Z,28.84
2022-08-07T09:54:21.038Z,27.97
2022-08-07T09:57:46.835Z,28.67
2022-08-07T10:00:18.788Z,28.73
2022-08-07T10:04:04.791Z,28.95
2022-08-07T10:06:59.676Z,29.44
2022-08-07T10:10:03.552Z,29.65
2022-08-07T10:12:56.109Z,29.54
2022-08-07T10:15:47.902Z,29.20
2022-08-07T10:18:53.738Z,29.87
2022-08-07T10:22:12.261Z,29.89
2022-08-07T10:24:50.545Z,29.95
2022-08-07T10:27:45.907Z,29.33
2022-08-07T10:30:19.783Z,29.81
2022-08-07T10:34:05.103Z,30.44
2022-08-07T10:36:30.652Z,30.47
2022-08-07T10:39:13.600Z,30.34
2022-08-07T10:42:01.630Z,30.39
2022-08-07T10:44:45.338Z,30.77
2022-08-07T10:47:50.596Z,30.88
2022-08-07T10:50:25.814Z,29.46
2022-08-07T10:53:21.700Z,29.83
2022-08-07T10:56:02.226Z,30.86
2022-08-07T10:58:59.424Z,30.78
2022-08-07T11:01:51.427Z,30.92
2022-08-07T11:05:01.085Z,30.63
2022-08-07T11:07:58.526Z,31.05
2022-08-07T11:10:41.832Z,31.18
2022-08-07T11:14:43.941Z,31.47
2022-08-07T11:16:16.255Z,30.88
2022-08-07T11:18:55.304Z,31.48
2022-08-07T11:21:40.758Z,31.58
2022-08-07T11:24:21.429Z,32.20
2022-08-07T11:27:00.470Z,32.71
2022-08-07T11:29:43.030Z,32.72
2022-08-07T11:32:25.914Z,32.86
2022-08-07T11:34:59.949Z,33.09
2022-08-07T11:38:12.832Z,33.24
2022-08-07T11:40:57.771Z,32.59
2022-08-07T11:43:54.906Z,31.57
2022-08-07T11:46:49.669Z,31.84
2022-08-07T11:50:32.225Z,32.91
2022-08-07T11:53:23.987Z,33.64
2022-08-07T11:56:26.964Z,33.11
2022-08-07T12:00:08.852Z,33.91
2022-08-07T12:02:29.936Z,34.12
2022-08-07T12:05:15.337Z,33.82
2022-08-07T12:08:06.337Z,34.03
2022-08-07T12:10:46.194Z,33.22
2022-08-07T12:13:35.515Z,31.94
2022-08-07T12:16:12.881Z,33.14
2022-08-07T12:19:14.695Z,33.07
2022-08-07T12:22:37.987Z,32.00
2022-08-07T12:26:03.448Z,33.52
2022-08-07T12:28:31.082Z,34.15
2022-08-07T12:31:05.685Z,34.23
2022-08-07T12:33:56.604Z,34.96
2022-08-07T12:36:33.423Z,34.37
2022-08-07T12:39:41.151Z,34.47
2022-08-07T12:41:54.880Z,35.32
2022-08-07T12:44:26.777Z,34.96
2022-08-07T12:47:14.040Z,34.97
2022-08-07T12:50:34.201Z,35.52
2022-08-07T12:52:53.094Z,33.84
2022-08-07T12:55:41.092Z,35.05
2022-08-07T12:58:21.188Z,34.95
2022-08-07T13:01:08.998Z,34.61
2022-08-07T13:04:05.797Z,34.72
2022-08-07T13:07:03.963Z,34.02
2022-08-07T13:10:39.199Z,33.26
2022-08-07T13:13:50.324Z,34.74
2022-08-07T13:16:30.897Z,35.65
2022-08-07T13:19:18.390Z,35.67
2022-08-07T13:22:19.919Z,35.75
2022-08-07T13:25:00.038Z,35.92
2022-08-07T13:28:11.205Z,36.21
2022-08-07T13:30:40.579Z,35.50
2022-08-07T13:34:31.025Z,36.51
2022-08-07T13:36:25.707Z,36.69
2022-08-07T13:39:12.669Z,36.34
2022-08-07T13:41:55.977Z,36.84
2022-08-07T13:44:43.734Z,35.82
2022-08-07T13:47:27.843Z,36.14
2022-08-07T13:50:33.762Z,36.72
2022-08-07T13:53:06.556Z,36.15
2022-08-07T13:55:54.329Z,36.28
2022-08-07T13:58:56.597Z,36.75
2022-08-07T14:01:28.532Z,37.23
2022-08-07T14:04:11.275Z,37.56
2022-08-07T14:06:46.819Z,36.74
2022-08-07T14:10:17.490Z,38.35
2022-08-07T14:12:29.930Z,37.25
2022-08-07T14:15:10.431Z,37.66
2022-08-07T14:18:27.597Z,38.07
2022-08-07T14:20:41.647Z,38.17
2022-08-07T14:23:58.975Z,37.46
2022-08-07T14:26:29.981Z,37.16
2022-08-07T14:30:06.729Z,36.25
2022-08-07T14:32:00.209Z,37.93
2022-08-07T14:34:32.692Z,37.86
2022-08-07T14:37:03.181Z,38.72
2022-08-07T14:40:16.080Z,38.65
2022-08-07T14:42:32.386Z,37.76
2022-08-07T14:45:21.917Z,39.34
2022-08-07T14:47:58.731Z,38.54
2022-08-07T14:50:37.517Z,38.80
2022-08-07T14:53:08.812Z,37.74
2022-08-07T14:55:56.286Z,38.26
2022-08-07T14:58:34.816Z,38.54
2022-08-07T15:01:22.364Z,38.80
2022-08-07T15:03:53.483Z,38.87
2022-08-07T15:06:26.468Z,39.18
2022-08-07T15:08:56.158Z,38.50
2022-08-07T15:11:54.034Z,38.62
2022-08-07T15:14:30.596Z,39.75
2022-08-07T15:17:16.716Z,39.25
2022-08-07T15:20:34.162Z,39.03
2022-08-07T15:22:53.701Z,39.60
2022-08-07T15:25:36.991Z,38.94
2022-08-07T15:28:32.859Z,38.84
2022-08-07T15:31:05.650Z,37.93
2022-08-07T15:39:16.970Z,38.43
2022-08-07T15:42:45.155Z,38.08
2022-08-07T15:44:54.135Z,39.58
2022-08-07T15:48:00.998Z,37.81
2022-08-07T15:53:13.061Z,38.61
2022-08-07T15:56:02.540Z,38.56
2022-08-07T15:58:44.969Z,38.49
2022-08-07T16:01:38.609Z,38.14
2022-08-07T16:04:15.336Z,38.18
2022-08-07T16:06:54.443Z,37.34
2022-08-07T16:09:41.046Z,37.21
2022-08-07T16:12:28.852Z,37.10
2022-08-07T16:15:07.941Z,35.65
2022-08-07T16:18:04.046Z,36.73
2022-08-07T16:20:55.209Z,37.18
2022-08-07T16:24:00.156Z,38.25
2022-08-07T16:26:59.339Z,37.62
2022-08-07T16:30:09.675Z,37.94
2022-08-07T16:32:55.031Z,38.63
2022-08-07T16:35:51.884Z,39.03
2022-08-07T16:39:00.897Z,39.18
2022-08-07T16:42:02.659Z,39.39
2022-08-07T16:45:14.750Z,38.71
2022-08-07T16:48:58.502Z,37.29
2022-08-07T16:52:11.409Z,36.87
2022-08-07T16:55:11.533Z,36.33
2022-08-07T16:58:02.984Z,35.72
2022-08-07T17:00:45.205Z,34.81
2022-08-07T17:03:58.379Z,34.32
2022-08-07T17:06:45.351Z,32.84
2022-08-07T17:10:06.384Z,33.24
2022-08-07T17:12:36.828Z,32.26
2022-08-07T17:15:43.889Z,32.12
2022-08-07T17:18:29.186Z,31.25
2022-08-07T17:21:02.807Z,31.30
2022-08-07T17:24:00.400Z,30.69
2022-08-07T17:26:49.848Z,30.54
2022-08-07T17:30:14.915Z,30.67
2022-08-07T17:32:30.809Z,30.29
2022-08-07T17:35:49.962Z,29.63
2022-08-07T17:38:32.029Z,29.82
2022-08-07T17:42:01.735Z,29.66
2022-08-07T17:44:33.957Z,29.36
2022-08-07T17:47:17.133Z,29.49
2022-08-07T17:50:09.556Z,29.05
2022-08-07T17:52:53.375Z,28.80
2022-08-07T17:56:00.504Z,28.53
2022-08-07T17:58:32.741Z,28.67
2022-08-07T18:01:21.198Z,28.27
2022-08-07T18:04:16.707Z,28.73
2022-08-07T18:07:19.050Z,27.86
2022-08-07T18:10:06.231Z,27.95
2022-08-07T18:13:11.356Z,28.24
2022-08-07T18:16:06.886Z,28.20
2022-08-07T18:21:02.299Z,28.02
2022-08-07T18:22:02.679Z,27.44
2022-08-07T18:24:36.905Z,27.52
2022-08-07T18:27:39.216Z,27.56
2022-08-07T18:30:32.563Z,27.75
2022-08-07T18:33:58.264Z,27.42
2022-08-07T18:36:53.717Z,27.75
2022-08-07T18:40:09.006Z,27.61
2022-08-07T18:43:15.099Z,27.57
2022-08-07T18:46:21.655Z,27.36
2022-08-07T18:50:32.779Z,27.25
2022-08-07T18:52:52.969Z,27.30
2022-08-07T18:56:00.210Z,27.11
2022-08-07T18:59:47.981Z,26.94
2022-08-07T19:02:18.365Z,26.88
2022-08-07T19:05:15.394Z,26.63
2022-08-07T19:07:57.282Z,26.61
2022-08-07T19:10:51.976Z,26.47
2022-08-07T19:13:27.461Z,26.33
2022-08-07T19:17:00.385Z,26.31
2022-08-07T19:19:04.170Z,26.24
2022-08-07T19:21:56.967Z,26.27
2022-08-07T19:24:44.426Z,26.07
2022-08-07T19:30:54.611Z,26.00
2022-08-07T19:31:00.064Z,25.76
2022-08-07T19:33:13.371Z,25.93
2022-08-07T19:35:52.850Z,25.82
2022-08-07T19:38:22.689Z,25.76
2022-08-07T19:40:53.320Z,25.54
2022-08-07T19:43:48.697Z,25.44
2022-08-07T19:46:19.118Z,25.44
2022-08-07T19:48:54.016Z,25.24
2022-08-07T19:51:50.994Z,25.22
2022-08-07T19:54:32.757Z,25.24
2022-08-07T19:58:01.398Z,24.96
2022-08-07T20:00:03.058Z,25.12
2022-08-07T20:02:51.685Z,24.98
2022-08-07T20:05:28.685Z,24.81
2022-08-07T20:08:02.102Z,24.98
2022-08-07T20:10:55.494Z,24.80
2022-08-07T20:13:34.017Z,24.71
2022-08-07T20:16:06.758Z,24.78
2022-08-07T20:18:47.054Z,24.82
2022-08-07T20:21:22.570Z,24.41
2022-08-07T20:24:00.335Z,24.62
2022-08-07T20:26:45.165Z,24.65
2022-08-07T20:29:48.738Z,24.45
2022-08-07T20:32:11.548Z,24.46
2022-08-07T20:34:55.221Z,24.13
2022-08-07T20:37:55.657Z,24.24
2022-08-07T20:40:32.062Z,24.30
2022-08-07T20:43:14.874Z,24.34
2022-08-07T20:46:25.922Z,23.81
2022-08-07T20:48:58.003Z,24.15
2022-08-07T20:51:40.446Z,24.13
2022-08-07T20:54:29.540Z,23.95
2022-08-07T20:57:08.338Z,23.90
2022-08-07T21:00:07.668Z,24.13
2022-08-07T21:02:53.845Z,23.84
2022-08-07T21:05:50.826Z,24.04
2022-08-07T21:08:37.051Z,23.85
2022-08-07T21:11:14.217Z,24.10
2022-08-07T21:14:16.296Z,24.05
2022-08-07T21:16:56.559Z,23.78
2022-08-07T21:19:51.876Z,23.83
2022-08-07T21:22:28.472Z,24.00
2022-08-07T21:25:13.056Z,23.84
2022-08-07T21:28:08.510Z,23.55
2022-08-07T21:30:52.769Z,23.70
2022-08-07T21:33:38.296Z,23.69
2022-08-07T21:36:32.090Z,23.43
2022-08-07T21:39:46.950Z,23.51
2022-08-07T21:46:08.365Z,23.33
2022-08-07T21:48:28.990Z,23.30
2022-08-07T21:51:19.902Z,23.38
2022-08-07T21:54:01.220Z,23.45
2022-08-07T21:56:48.310Z,23.04
2022-08-07T22:00:03.581Z,23.13
2022-08-07T22:02:38.352Z,22.99
2022-08-07T22:05:43.809Z,23.00
2022-08-07T22:08:03.028Z,23.01
2022-08-07T22:10:35.395Z,23.03
2022-08-07T22:13:09.222Z,23.05
2022-08-07T22:16:39.514Z,22.96
2022-08-07T22:18:43.335Z,23.05
2022-08-07T22:21:20.511Z,22.97
2022-08-07T22:23:57.623Z,22.79
2022-08-07T22:26:40.014Z,22.61
2022-08-07T22:29:38.114Z,22.74
2022-08-07T22:32:33.511Z,22.58
2022-08-07T22:35:05.334Z,22.68
2022-08-07T22:38:03.118Z,22.58
2022-08-07T22:40:49.468Z,22.69
2022-08-07T22:43:23.457Z,22.54
2022-08-07T22:47:02.113Z,22.65
2022-08-07T22:49:42.823Z,22.61
2022-08-07T22:52:51.949Z,22.51
2022-08-07T22:55:49.134Z,22.24
2022-08-07T22:59:04.999Z,22.45
2022-08-07T23:02:13.594Z,22.43
2022-08-07T23:06:07.371Z,22.35
2022-08-07T23:08:00.854Z,22.53
2022-08-07T23:10:48.407Z,22.35
2022-08-07T23:14:15.015Z,22.03
2022-08-07T23:17:04.107Z,22.15
2022-08-07T23:20:07.600Z,22.21
2022-08-07T23:22:56.708Z,22.29
2022-08-07T23:25:42.807Z,22.38
2022-08-07T23:28:36.165Z,22.18
2022-08-07T23:32:50.264Z,21.99
2022-08-07T23:34:50.760Z,22.06
2022-08-07T23:38:01.330Z,21.80
2022-08-07T23:40:43.182Z,21.93
2022-08-07T23:44:01.820Z,21.84
2022-08-07T23:46:53.487Z,21.92
2022-08-07T23:49:59.459Z,21.88
2022-08-07T23:53:16.847Z,21.87
2022-08-07T23:55:52.052Z,21.88
2022-08-07T23:58:37.435Z,21.79
